createdAt,value
2019-05-01T00:00:48.143Z,0
2019-05-01T00:01:28.621Z,0
2019-05-01T00:02:08.987Z,0
2019-05-01T00:02:49.382Z,0
2019-05-01T00:04:10.182Z,0
2019-05-01T00:04:50.578Z,0
2019-05-01T00:05:30.968Z,0
2019-05-01T00:06:11.450Z,0
2019-05-01T00:06:51.753Z,0
2019-05-01T00:07:32.154Z,0
2019-05-01T00:12:53.977Z,0
2019-05-01T00:13:34.324Z,0
2019-05-01T00:14:14.719Z,0
2019-05-01T00:14:55.162Z,0
2019-05-01T00:15:35.596Z,0
2019-05-01T00:16:15.906Z,0
2019-05-01T00:16:56.322Z,0
2019-05-01T00:17:36.717Z,0
2019-05-01T00:18:17.141Z,0
2019-05-01T00:18:57.466Z,0
2019-05-01T00:19:38.047Z,0
2019-05-01T00:20:18.299Z,0
2019-05-01T00:29:03.591Z,0
2019-05-01T00:29:43.992Z,0
2019-05-01T00:30:29.915Z,0
2019-05-01T00:31:04.867Z,0
2019-05-01T00:31:45.496Z,0
2019-05-01T00:32:25.759Z,0
2019-05-01T00:33:06.157Z,0
2019-05-01T00:33:46.561Z,0
2019-05-01T00:34:27.076Z,0
2019-05-01T00:35:07.440Z,0
2019-05-01T00:37:27.960Z,0
2019-05-01T00:38:08.322Z,0
2019-05-01T00:38:48.754Z,0
2019-05-01T00:39:29.126Z,0
2019-05-01T00:40:09.544Z,0
2019-05-01T00:41:30.371Z,0
2019-05-01T00:42:10.723Z,0
2019-05-01T00:42:51.117Z,0
2019-05-01T00:43:31.481Z,0
2019-05-01T00:44:11.957Z,0
2019-05-01T00:44:52.264Z,0
2019-05-01T00:52:57.114Z,0
2019-05-01T00:53:37.584Z,0
2019-05-01T00:54:17.994Z,0
2019-05-01T00:54:58.330Z,0
2019-05-01T00:55:38.782Z,0
2019-05-01T00:56:19.111Z,0
2019-05-01T00:56:59.593Z,0
2019-05-01T00:57:39.982Z,0
2019-05-01T00:58:20.285Z,0
2019-05-01T00:59:00.692Z,0
2019-05-01T00:59:41.372Z,0
2019-05-01T01:00:21.701Z,0
2019-05-01T01:01:02.400Z,0
2019-05-01T01:07:47.133Z,0
2019-05-01T01:08:27.396Z,0
2019-05-01T01:09:07.745Z,0
2019-05-01T01:09:48.183Z,0
2019-05-01T01:10:28.514Z,0
2019-05-01T01:11:08.949Z,0
2019-05-01T01:11:49.295Z,0
2019-05-01T01:12:29.745Z,0
2019-05-01T01:13:10.134Z,0
2019-05-01T01:13:50.485Z,0
2019-05-01T01:14:30.926Z,0
2019-05-01T01:17:48.454Z,0
2019-05-01T01:18:28.862Z,0
2019-05-01T01:19:09.232Z,0
2019-05-01T01:19:49.636Z,0
2019-05-01T01:20:29.997Z,0
2019-05-01T01:21:10.376Z,0
2019-05-01T01:21:50.785Z,0
2019-05-01T01:22:31.239Z,0
2019-05-01T01:23:11.630Z,0
2019-05-01T01:23:51.974Z,0
2019-05-01T01:24:32.350Z,0
2019-05-01T01:25:12.752Z,0
2019-05-01T01:25:53.155Z,0
2019-05-01T01:34:38.365Z,0
2019-05-01T01:35:18.816Z,0
2019-05-01T01:35:59.232Z,0
2019-05-01T01:36:39.687Z,0
2019-05-01T01:37:20.032Z,0
2019-05-01T01:38:00.418Z,0
2019-05-01T01:38:40.835Z,0
2019-05-01T01:39:21.255Z,0
2019-05-01T01:40:01.627Z,0
2019-05-01T01:40:42.010Z,0
2019-05-01T01:42:02.791Z,0
2019-05-01T01:42:43.170Z,0
2019-05-01T01:51:28.373Z,0
2019-05-01T01:52:08.764Z,0
2019-05-01T01:52:49.191Z,0
2019-05-01T01:53:29.617Z,0
2019-05-01T01:54:10.018Z,0
2019-05-01T01:54:50.413Z,0
2019-05-01T01:55:30.840Z,0
2019-05-01T01:56:11.266Z,0
2019-05-01T01:56:51.702Z,0
2019-05-01T01:57:32.037Z,0
2019-05-01T01:58:12.450Z,0
2019-05-01T01:58:52.853Z,0
2019-05-01T01:59:33.249Z,0
2019-05-01T02:01:52.061Z,0
2019-05-01T02:02:32.057Z,0
2019-05-01T02:03:12.441Z,0
2019-05-01T02:03:52.822Z,0
2019-05-01T02:04:33.208Z,0
2019-05-01T02:05:13.584Z,0
2019-05-01T02:05:53.975Z,0
2019-05-01T02:06:34.354Z,0
2019-05-01T02:07:14.805Z,0
2019-05-01T02:07:55.213Z,0
2019-05-01T02:08:35.571Z,0
2019-05-01T02:09:15.963Z,0
2019-05-01T02:09:56.382Z,0
2019-05-01T02:10:42.736Z,0
2019-05-01T02:11:17.132Z,0
2019-05-01T02:11:57.543Z,0
2019-05-01T02:12:37.905Z,0
2019-05-01T02:21:23.023Z,0
2019-05-01T02:22:03.482Z,0
2019-05-01T02:22:43.790Z,0
2019-05-01T02:23:24.196Z,0
2019-05-01T02:24:04.635Z,0
2019-05-01T02:24:44.967Z,0
2019-05-01T02:25:25.431Z,0
2019-05-01T02:27:38.623Z,0
2019-05-01T02:28:18.822Z,0
2019-05-01T02:28:59.205Z,0
2019-05-01T02:29:39.687Z,0
2019-05-01T02:30:20.040Z,0
2019-05-01T02:31:00.424Z,0
2019-05-01T02:31:40.821Z,0
2019-05-01T02:32:21.264Z,0
2019-05-01T02:33:01.587Z,0
2019-05-01T02:33:42.018Z,0
2019-05-01T02:34:22.418Z,0
2019-05-01T02:35:02.797Z,0
2019-05-01T02:35:43.198Z,0
2019-05-01T02:36:23.604Z,0
2019-05-01T02:45:41.345Z,0
2019-05-01T02:46:34.920Z,0
2019-05-01T02:48:56.606Z,0
2019-05-01T02:49:36.798Z,0
2019-05-01T02:50:17.207Z,0
2019-05-01T02:50:57.631Z,0
2019-05-01T02:51:38.031Z,0
2019-05-01T02:52:18.445Z,0
2019-05-01T02:52:58.823Z,0
2019-05-01T02:53:39.213Z,0
2019-05-01T02:54:19.629Z,0
2019-05-01T02:55:00.032Z,0
2019-05-01T02:55:40.440Z,0
2019-05-01T02:56:20.883Z,0
2019-05-01T02:57:01.270Z,0
2019-05-01T02:57:41.694Z,0
2019-05-01T02:58:22.093Z,0
2019-05-01T03:06:26.894Z,0
2019-05-01T03:07:07.322Z,0
2019-05-01T03:07:47.670Z,0
2019-05-01T03:08:28.065Z,0
2019-05-01T03:09:08.501Z,0
2019-05-01T03:09:48.882Z,0
2019-05-01T03:10:29.278Z,0
2019-05-01T03:11:09.713Z,0
2019-05-01T03:11:50.154Z,0
2019-05-01T03:12:30.514Z,0
2019-05-01T03:13:10.931Z,0
2019-05-01T03:13:51.370Z,0
2019-05-01T03:14:31.735Z,0
2019-05-01T03:22:46.215Z,0
2019-05-01T03:23:26.668Z,0
2019-05-01T03:24:07.066Z,0
2019-05-01T03:24:47.485Z,0
2019-05-01T03:25:27.842Z,0
2019-05-01T03:26:08.254Z,0
2019-05-01T03:26:48.671Z,0
2019-05-01T03:27:29.056Z,0
2019-05-01T03:28:09.448Z,0
2019-05-01T03:28:49.844Z,0
2019-05-01T03:29:32.191Z,0
2019-05-01T03:30:12.618Z,0
2019-05-01T03:38:57.706Z,0
2019-05-01T03:39:38.071Z,0
2019-05-01T03:40:18.464Z,0
2019-05-01T03:40:58.953Z,0
2019-05-01T03:41:39.303Z,0
2019-05-01T03:42:19.721Z,0
2019-05-01T03:43:00.118Z,0
2019-05-01T03:43:40.522Z,0
2019-05-01T03:44:20.913Z,0
2019-05-01T03:45:01.272Z,0
2019-05-01T03:45:41.672Z,0
2019-05-01T03:46:22.015Z,0
2019-05-01T03:47:02.385Z,0
2019-05-01T03:55:47.443Z,4
2019-05-01T03:56:27.857Z,4
2019-05-01T03:57:08.175Z,4
2019-05-01T03:57:48.556Z,4
2019-05-01T03:58:28.973Z,4
2019-05-01T04:00:42.024Z,4
2019-05-01T04:01:22.425Z,8
2019-05-01T04:02:02.789Z,4
2019-05-01T04:02:43.187Z,8
2019-05-01T04:03:23.612Z,8
2019-05-01T04:04:04.001Z,12
2019-05-01T04:04:44.415Z,8
2019-05-01T04:05:24.825Z,8
2019-05-01T04:06:45.761Z,12
2019-05-01T04:07:26.118Z,8
2019-05-01T04:08:06.557Z,12
2019-05-01T04:18:09.112Z,28
2019-05-01T04:18:49.732Z,28
2019-05-01T04:19:30.168Z,24
2019-05-01T04:20:10.558Z,28
2019-05-01T04:20:50.936Z,28
2019-05-01T04:21:31.380Z,32
2019-05-01T04:24:52.091Z,36
2019-05-01T04:25:32.552Z,36
2019-05-01T04:26:12.915Z,40
2019-05-01T04:27:33.661Z,44
2019-05-01T05:07:28.197Z,148
2019-05-01T05:08:20.363Z,152
2019-05-01T05:09:17.327Z,152
2019-05-01T05:10:06.976Z,156
2019-05-01T05:12:19.494Z,156
2019-05-01T05:12:59.642Z,156
2019-05-01T05:13:40.069Z,156
2019-05-01T05:14:20.478Z,160
2019-05-01T05:15:00.835Z,164
2019-05-01T05:15:41.203Z,172
2019-05-01T05:16:21.587Z,176
2019-05-01T05:17:01.962Z,184
2019-05-01T05:17:42.340Z,192
2019-05-01T05:18:22.707Z,200
2019-05-01T05:19:03.082Z,204
2019-05-01T05:19:43.633Z,208
2019-05-01T05:20:23.922Z,208
2019-05-01T05:21:04.316Z,212
2019-05-01T05:29:49.471Z,204
2019-05-01T05:30:29.832Z,204
2019-05-01T05:31:10.175Z,208
2019-05-01T05:31:50.548Z,208
2019-05-01T05:32:30.926Z,208
2019-05-01T05:35:48.022Z,236
2019-05-01T05:36:28.257Z,232
2019-05-01T05:37:08.624Z,236
2019-05-01T05:37:48.991Z,228
2019-05-01T05:38:29.544Z,232
2019-05-01T05:39:50.343Z,228
2019-05-01T05:40:30.735Z,232
2019-05-01T05:41:11.156Z,232
2019-05-01T05:41:51.588Z,240
2019-05-01T05:42:32.018Z,236
2019-05-01T05:43:12.445Z,244
2019-05-01T05:51:17.191Z,300
2019-05-01T05:51:57.614Z,296
2019-05-01T05:52:37.949Z,300
2019-05-01T05:53:18.387Z,300
2019-05-01T05:53:58.808Z,304
2019-05-01T05:54:39.126Z,304
2019-05-01T05:55:19.628Z,304
2019-05-01T05:55:59.944Z,304
2019-05-01T05:56:40.382Z,300
2019-05-01T05:58:01.066Z,296
2019-05-01T05:58:41.480Z,292
2019-05-01T05:59:21.839Z,296
2019-05-01T06:00:02.241Z,300
2019-05-01T06:05:31.087Z,340
2019-05-01T06:06:11.231Z,340
2019-05-01T06:06:51.711Z,344
2019-05-01T06:07:32.103Z,344
2019-05-01T06:08:12.489Z,352
2019-05-01T06:08:52.849Z,352
2019-05-01T06:09:33.221Z,340
2019-05-01T06:10:13.625Z,348
2019-05-01T06:10:58.394Z,356
2019-05-01T06:11:35.468Z,356
2019-05-01T06:12:14.862Z,364
2019-05-01T06:12:55.269Z,368
2019-05-01T06:13:35.662Z,372
2019-05-01T06:14:16.053Z,380
2019-05-01T06:23:01.201Z,412
2019-05-01T06:23:41.617Z,416
2019-05-01T06:24:22.025Z,420
2019-05-01T06:25:02.421Z,420
2019-05-01T06:25:42.808Z,416
2019-05-01T06:26:23.148Z,420
2019-05-01T06:27:03.540Z,424
2019-05-01T06:27:44.715Z,420
2019-05-01T06:28:24.653Z,416
2019-05-01T06:29:04.718Z,408
2019-05-01T06:29:45.111Z,408
2019-05-01T06:30:25.465Z,408
2019-05-01T06:31:05.877Z,408
2019-05-01T06:31:46.286Z,408
2019-05-01T06:39:51.065Z,440
2019-05-01T06:40:31.500Z,432
2019-05-01T06:41:11.899Z,420
2019-05-01T06:42:32.610Z,416
2019-05-01T06:43:12.967Z,428
2019-05-01T06:43:56.963Z,420
2019-05-01T06:44:38.729Z,428
2019-05-01T06:45:16.730Z,432
2019-05-01T06:45:54.777Z,436
2019-05-01T06:46:35.510Z,448
2019-05-01T06:47:15.492Z,456
2019-05-01T06:47:55.955Z,468
2019-05-01T06:48:36.254Z,484
2019-05-01T06:56:41.064Z,480
2019-05-01T06:57:21.466Z,468
2019-05-01T06:58:01.864Z,472
2019-05-01T06:58:42.241Z,472
2019-05-01T06:59:26.113Z,472
2019-05-01T07:00:07.605Z,476
2019-05-01T07:00:44.293Z,484
2019-05-01T07:01:24.122Z,488
2019-05-01T07:02:04.251Z,480
2019-05-01T07:02:44.642Z,492
2019-05-01T07:03:25.026Z,500
2019-05-01T07:04:05.385Z,512
2019-05-01T07:04:45.778Z,512
2019-05-01T07:14:15.966Z,500
2019-05-01T07:14:52.127Z,504
2019-05-01T07:15:32.041Z,516
2019-05-01T07:16:12.419Z,516
2019-05-01T07:16:52.901Z,520
2019-05-01T07:17:33.405Z,520
2019-05-01T07:18:13.798Z,520
2019-05-01T07:18:57.950Z,516
2019-05-01T07:19:35.493Z,520
2019-05-01T07:20:16.657Z,516
2019-05-01T07:20:55.389Z,516
2019-05-01T07:21:35.779Z,516
2019-05-01T07:22:16.180Z,520
2019-05-01T07:32:36.372Z,588
2019-05-01T07:33:16.553Z,596
2019-05-01T07:33:56.150Z,596
2019-05-01T07:34:36.555Z,600
2019-05-01T07:35:16.966Z,608
2019-05-01T07:36:37.768Z,604
2019-05-01T07:37:20.734Z,588
2019-05-01T07:38:02.179Z,572
2019-05-01T07:38:45.713Z,560
2019-05-01T07:39:44.784Z,552
2019-05-01T07:40:28.855Z,552
2019-05-01T07:42:25.016Z,548
2019-05-01T07:43:05.427Z,544
2019-05-01T07:43:45.815Z,540
2019-05-01T07:44:29.921Z,540
2019-05-01T07:45:08.218Z,540
2019-05-01T07:45:46.997Z,532
2019-05-01T07:46:27.434Z,544
2019-05-01T07:47:07.825Z,552
2019-05-01T07:47:48.246Z,556
2019-05-01T07:48:28.664Z,560
2019-05-01T07:49:12.968Z,556
2019-05-01T07:49:52.608Z,536
2019-05-01T07:50:32.581Z,524
2019-05-01T07:56:35.214Z,640
2019-05-01T07:57:14.981Z,636
2019-05-01T07:57:55.388Z,636
2019-05-01T07:58:39.341Z,648
2019-05-01T07:59:22.733Z,668
2019-05-01T08:00:03.214Z,672
2019-05-01T08:04:45.775Z,684
2019-05-01T08:05:26.218Z,676
2019-05-01T08:06:06.637Z,708
2019-05-01T08:06:47.062Z,700
2019-05-01T08:07:27.695Z,724
2019-05-01T08:08:09.546Z,740
2019-05-01T08:08:48.272Z,732
2019-05-01T08:09:28.661Z,736
2019-05-01T08:10:09.061Z,744
2019-05-01T08:10:49.737Z,748
2019-05-01T08:11:30.073Z,756
2019-05-01T08:20:16.748Z,824
2019-05-01T08:20:55.678Z,848
2019-05-01T08:23:14.311Z,868
2019-05-01T08:23:54.564Z,872
2019-05-01T08:24:34.918Z,892
2019-05-01T08:25:15.364Z,888
2019-05-01T08:32:03.376Z,908
2019-05-01T08:32:40.928Z,904
2019-05-01T08:33:20.118Z,896
2019-05-01T08:34:00.506Z,916
2019-05-01T08:34:48.662Z,924
2019-05-01T08:35:21.331Z,932
2019-05-01T08:36:01.743Z,924
2019-05-01T08:36:42.564Z,908
2019-05-01T08:37:24.084Z,904
2019-05-01T08:38:02.971Z,908
2019-05-01T08:38:43.391Z,920
2019-05-01T08:39:23.769Z,908
2019-05-01T08:48:49.315Z,900
2019-05-01T08:49:29.729Z,896
2019-05-01T08:50:10.100Z,920
2019-05-01T08:50:50.494Z,944
2019-05-01T08:51:34.755Z,932
2019-05-01T08:52:13.844Z,944
2019-05-01T08:52:51.642Z,940
2019-05-01T08:53:32.016Z,920
2019-05-01T08:54:12.459Z,916
2019-05-01T08:54:54.861Z,916
2019-05-01T08:56:16.891Z,920
2019-05-01T09:05:02.269Z,1052
2019-05-01T09:05:40.023Z,1044
2019-05-01T09:06:20.452Z,1044
2019-05-01T09:07:00.872Z,1060
2019-05-01T09:07:41.308Z,1076
2019-05-01T09:08:21.616Z,1092
2019-05-01T09:09:02.816Z,1092
2019-05-01T09:09:45.269Z,1080
2019-05-01T09:10:23.232Z,1040
2019-05-01T09:11:03.223Z,1016
2019-05-01T09:11:43.600Z,1016
2019-05-01T09:12:24.028Z,992
2019-05-01T09:21:09.244Z,980
2019-05-01T09:21:49.626Z,976
2019-05-01T09:22:30.030Z,984
2019-05-01T09:23:14.245Z,992
2019-05-01T09:23:53.100Z,1004
2019-05-01T09:24:31.282Z,1024
2019-05-01T09:25:11.698Z,1048
2019-05-01T09:25:52.394Z,1056
2019-05-01T09:26:32.493Z,1048
2019-05-01T09:27:13.040Z,1036
2019-05-01T09:27:53.425Z,1024
2019-05-01T09:28:35.880Z,1028
2019-05-01T09:29:15.993Z,1028
2019-05-01T09:35:59.166Z,1156
2019-05-01T09:36:39.530Z,1160
2019-05-01T09:37:19.937Z,1144
2019-05-01T09:38:00.293Z,1156
2019-05-01T09:38:40.729Z,1152
2019-05-01T09:39:21.087Z,1132
2019-05-01T09:40:03.991Z,1104
2019-05-01T09:40:41.928Z,1096
2019-05-01T09:41:22.509Z,1100
2019-05-01T09:42:02.946Z,1100
2019-05-01T09:42:43.400Z,1116
2019-05-01T09:43:23.782Z,1120
2019-05-01T09:44:05.703Z,1112
2019-05-01T09:50:09.171Z,1108
2019-05-01T09:50:50.009Z,1104
2019-05-01T09:51:30.360Z,1116
2019-05-01T09:52:10.621Z,1132
2019-05-01T09:52:55.025Z,1152
2019-05-01T09:53:34.175Z,1156
2019-05-01T09:54:11.914Z,1168
2019-05-01T09:54:52.318Z,1176
2019-05-01T09:55:32.970Z,1180
2019-05-01T09:56:13.607Z,1200
2019-05-01T09:56:53.931Z,1220
2019-05-01T09:57:36.341Z,1244
2019-05-01T10:05:42.799Z,1232
2019-05-01T10:06:19.964Z,1224
2019-05-01T10:07:02.191Z,1208
2019-05-01T10:07:40.827Z,1204
2019-05-01T10:08:21.210Z,1204
2019-05-01T10:09:01.619Z,1184
2019-05-01T10:09:42.009Z,1180
2019-05-01T10:10:24.738Z,1176
2019-05-01T10:11:05.057Z,1180
2019-05-01T10:11:43.193Z,1200
2019-05-01T10:12:23.596Z,1212
2019-05-01T10:13:03.989Z,1220
2019-05-01T10:21:49.222Z,1420
2019-05-01T10:22:32.851Z,1432
2019-05-01T10:23:12.914Z,1416
2019-05-01T10:23:51.609Z,1412
2019-05-01T10:24:31.882Z,1408
2019-05-01T10:25:12.292Z,1412
2019-05-01T10:25:51.626Z,1428
2019-05-01T10:26:32.004Z,1452
2019-05-01T10:27:12.378Z,1480
2019-05-01T10:27:53.085Z,1484
2019-05-01T10:28:33.175Z,1504
2019-05-01T10:29:13.561Z,1512
2019-05-01T11:07:43.352Z,1792
2019-05-01T11:08:24.061Z,1796
2019-05-01T11:09:04.479Z,1824
2019-05-01T11:09:44.895Z,1864
2019-05-01T11:10:25.323Z,1896
2019-05-01T11:11:05.704Z,1916
2019-05-01T11:11:46.117Z,1912
2019-05-01T11:12:26.656Z,1916
2019-05-01T11:13:07.836Z,1940
2019-05-01T11:13:47.435Z,1960
2019-05-01T11:21:52.582Z,2024
2019-05-01T11:22:32.972Z,2012
2019-05-01T11:23:13.347Z,1972
2019-05-01T11:23:53.721Z,1928
2019-05-01T11:24:34.127Z,1904
2019-05-01T11:25:14.539Z,1912
2019-05-01T11:25:54.967Z,1940
2019-05-01T11:26:35.444Z,1972
2019-05-01T11:27:15.872Z,2000
2019-05-01T11:27:56.253Z,2020
2019-05-01T11:30:25.032Z,2024
2019-05-01T11:31:04.654Z,2048
2019-05-01T11:31:45.081Z,2064
2019-05-01T11:32:25.475Z,2088
2019-05-01T11:33:46.389Z,2156
2019-05-01T11:34:26.816Z,2164
2019-05-01T11:36:39.412Z,2092
2019-05-01T11:37:19.885Z,2088
2019-05-01T11:38:00.266Z,2116
2019-05-01T11:38:40.672Z,2160
2019-05-01T11:39:21.096Z,2204
2019-05-01T11:40:01.486Z,2256
2019-05-01T11:40:41.878Z,2284
2019-05-01T11:42:02.702Z,2316
2019-05-01T11:42:43.052Z,2324
2019-05-01T11:43:23.432Z,2328
2019-05-01T11:44:03.824Z,2340
2019-05-01T11:44:44.234Z,2356
2019-05-01T11:52:49.319Z,2588
2019-05-01T11:53:29.705Z,2604
2019-05-01T11:54:10.132Z,2576
2019-05-01T11:54:50.519Z,2504
2019-05-01T11:55:30.923Z,2452
2019-05-01T11:56:11.372Z,2404
2019-05-01T11:56:51.774Z,2376
2019-05-01T11:57:32.179Z,2376
2019-05-01T11:58:12.585Z,2380
2019-05-01T11:58:52.971Z,2380
2019-05-01T12:01:06.821Z,2408
2019-05-01T12:01:47.057Z,2424
2019-05-01T12:02:27.468Z,2432
2019-05-01T12:04:28.708Z,2480
2019-05-01T12:05:09.053Z,2532
2019-05-01T12:05:49.476Z,2576
2019-05-01T12:06:30.083Z,2596
2019-05-01T12:07:10.576Z,2628
2019-05-01T12:07:50.920Z,2608
2019-05-01T12:08:31.381Z,2528
2019-05-01T12:09:11.726Z,2444
2019-05-01T12:09:52.137Z,2388
2019-05-01T12:10:32.532Z,2336
2019-05-01T12:11:12.931Z,2292
2019-05-01T12:11:53.341Z,2284
2019-05-01T12:12:33.701Z,2268
2019-05-01T12:21:18.907Z,2316
2019-05-01T12:21:59.293Z,2284
2019-05-01T12:22:39.738Z,2268
2019-05-01T12:23:20.121Z,2252
2019-05-01T12:24:02.321Z,2264
2019-05-01T12:24:43.072Z,2284
2019-05-01T12:25:23.570Z,2296
2019-05-01T12:26:04.056Z,2304
2019-05-01T12:31:31.100Z,2476
2019-05-01T12:32:09.060Z,2440
2019-05-01T12:32:50.101Z,2404
2019-05-01T12:33:30.496Z,2400
2019-05-01T12:34:10.925Z,2388
2019-05-01T12:34:51.714Z,2376
2019-05-01T12:35:31.709Z,2392
2019-05-01T12:36:12.141Z,2440
2019-05-01T12:36:53.435Z,2452
2019-05-01T12:37:33.821Z,2448
2019-05-01T12:42:18.736Z,2104
2019-05-01T12:42:59.194Z,2084
2019-05-01T12:43:39.550Z,2084
2019-05-01T12:44:19.981Z,2100
2019-05-01T12:45:00.388Z,2124
2019-05-01T12:45:40.771Z,2152
2019-05-01T12:46:22.213Z,2200
2019-05-01T12:47:02.590Z,2244
2019-05-01T12:47:42.979Z,2300
2019-05-01T12:48:23.410Z,2360
2019-05-01T12:49:03.779Z,2396
2019-05-01T12:55:48.711Z,2404
2019-05-01T12:56:30.642Z,2364
2019-05-01T12:57:11.028Z,2324
2019-05-01T12:57:51.415Z,2356
2019-05-01T12:58:31.899Z,2396
2019-05-01T12:59:12.333Z,2420
2019-05-01T12:59:52.875Z,2424
2019-05-01T13:00:33.181Z,2396
2019-05-01T13:01:13.599Z,2368
2019-05-01T13:07:19.077Z,2172
2019-05-01T13:07:59.395Z,2172
2019-05-01T13:08:39.895Z,2156
2019-05-01T13:09:20.211Z,2160
2019-05-01T13:10:00.628Z,2176
2019-05-01T13:10:41.090Z,2196
2019-05-01T13:11:22.150Z,2212
2019-05-01T13:12:02.633Z,2220
2019-05-01T13:12:43.109Z,2200
2019-05-01T13:13:24.020Z,2152
2019-05-01T13:18:48.979Z,2172
2019-05-01T13:19:29.371Z,2256
2019-05-01T13:20:11.316Z,2056
2019-05-01T13:20:51.717Z,1988
2019-05-01T13:21:32.126Z,1964
2019-05-01T13:22:12.537Z,2080
2019-05-01T13:22:54.017Z,2064
2019-05-01T13:27:38.833Z,1984
2019-05-01T13:28:19.284Z,1924
2019-05-01T13:29:00.771Z,1740
2019-05-01T13:29:40.962Z,1804
2019-05-01T13:30:21.435Z,1848
2019-05-01T13:31:01.786Z,1648
2019-05-01T13:31:42.174Z,1528
2019-05-01T13:32:24.450Z,1624
2019-05-01T13:36:28.739Z,1504
2019-05-01T13:37:09.120Z,1564
2019-05-01T13:37:49.531Z,1604
2019-05-01T13:38:29.976Z,1608
2019-05-01T13:39:10.528Z,1572
2019-05-01T13:39:51.538Z,1596
2019-05-01T13:40:33.880Z,1584
2019-05-01T13:41:14.248Z,1572
2019-05-01T13:47:19.110Z,1580
2019-05-01T13:47:59.514Z,1576
2019-05-01T13:48:41.516Z,1436
2019-05-01T13:50:02.499Z,1564
2019-05-01T13:50:44.713Z,1588
2019-05-01T13:56:08.822Z,1504
2019-05-01T13:57:31.297Z,1480
2019-05-01T13:58:11.710Z,1472
2019-05-01T13:58:53.078Z,1472
2019-05-01T13:59:33.157Z,1472
2019-05-01T14:00:15.408Z,1456
2019-05-01T14:02:19.329Z,1448
2019-05-01T14:03:02.535Z,1432
2019-05-01T14:03:42.694Z,1424
2019-05-01T14:05:03.697Z,1432
2019-05-01T14:08:29.191Z,1440
2019-05-01T14:09:11.517Z,1428
2019-05-01T14:09:51.942Z,1412
2019-05-01T14:10:32.300Z,1416
2019-05-01T14:12:52.249Z,1388
2019-05-01T14:13:32.610Z,1380
2019-05-01T14:14:12.994Z,1388
2019-05-01T14:14:53.680Z,1380
2019-05-01T14:15:34.077Z,1384
2019-05-01T14:16:14.589Z,1396
2019-05-01T14:23:39.951Z,1360
2019-05-01T14:24:20.511Z,1344
2019-05-01T14:25:02.347Z,1340
2019-05-01T14:25:42.899Z,1348
2019-05-01T14:26:23.172Z,1340
2019-05-01T14:27:03.700Z,1340
2019-05-01T14:32:29.986Z,1312
2019-05-01T14:33:10.709Z,1308
2019-05-01T14:33:51.078Z,1296
2019-05-01T14:34:32.747Z,1296
2019-05-01T14:35:13.084Z,1304
2019-05-01T14:35:53.780Z,1296
2019-05-01T14:36:35.260Z,1304
2019-05-01T14:39:22.995Z,1284
2019-05-01T14:40:05.041Z,1284
2019-05-01T14:40:44.974Z,1280
2019-05-01T14:43:32.176Z,1260
2019-05-01T14:44:12.692Z,1260
2019-05-01T14:44:53.188Z,1260
2019-05-01T14:45:33.830Z,1268
2019-05-01T14:46:14.247Z,1272
2019-05-01T14:46:54.651Z,1268
2019-05-01T14:50:20.578Z,1240
2019-05-01T14:51:01.400Z,1244
2019-05-01T14:51:41.687Z,1240
2019-05-01T14:52:22.171Z,1228
2019-05-01T14:53:03.578Z,1240
2019-05-01T14:53:43.379Z,1236
2019-05-01T14:54:24.947Z,1232
2019-05-01T14:59:50.046Z,1216
2019-05-01T15:00:30.539Z,1216
2019-05-01T15:01:11.906Z,1208
2019-05-01T15:01:52.919Z,1212
2019-05-01T15:02:34.040Z,1224
2019-05-01T15:06:40.046Z,1196
2019-05-01T15:07:22.054Z,1192
2019-05-01T15:08:04.709Z,1192
2019-05-01T15:13:34.353Z,1172
2019-05-01T15:14:14.669Z,1168
2019-05-01T15:14:55.393Z,1168
2019-05-01T15:15:35.854Z,1160
2019-05-01T15:16:16.224Z,1160
2019-05-01T15:16:56.742Z,1156
2019-05-01T15:17:37.234Z,1152
2019-05-01T15:18:17.678Z,1148
2019-05-01T15:18:58.071Z,1148
2019-05-01T15:19:38.735Z,1144
2019-05-01T15:20:19.189Z,1140
2019-05-01T15:25:59.943Z,1128
2019-05-01T15:26:40.267Z,1124
2019-05-01T15:27:20.816Z,1124
2019-05-01T15:28:02.174Z,1124
2019-05-01T15:30:46.333Z,1100
2019-05-01T15:31:26.882Z,1108
2019-05-01T15:32:07.951Z,1096
2019-05-01T15:32:48.582Z,1100
2019-05-01T15:33:29.139Z,1100
2019-05-01T15:34:09.770Z,1100
2019-05-01T15:34:50.190Z,1104
2019-05-01T15:35:30.813Z,1100
2019-05-01T15:36:12.157Z,1096
2019-05-01T15:38:56.511Z,1088
2019-05-01T15:39:36.975Z,1084
2019-05-01T15:40:17.445Z,1080
2019-05-01T15:40:57.785Z,1076
2019-05-01T15:41:38.255Z,1072
2019-05-01T15:42:18.742Z,1068
2019-05-01T15:42:59.432Z,1064
2019-05-01T15:43:39.683Z,1068
2019-05-01T15:45:00.469Z,1064
2019-05-01T15:45:40.916Z,1064
2019-05-01T15:46:21.313Z,1060
2019-05-01T15:51:06.890Z,1048
2019-05-01T15:51:47.324Z,1040
2019-05-01T15:52:28.775Z,1040
2019-05-01T15:53:09.613Z,1040
2019-05-01T15:53:50.076Z,1032
2019-05-01T15:54:30.589Z,1032
2019-05-01T15:55:10.963Z,1032
2019-05-01T15:55:51.307Z,1028
2019-05-01T16:00:39.401Z,1004
2019-05-01T16:01:19.802Z,1008
2019-05-01T16:02:00.196Z,1004
2019-05-01T16:02:40.597Z,1004
2019-05-01T16:03:21.415Z,1000
2019-05-01T16:06:40.373Z,980
2019-05-01T16:07:20.464Z,976
2019-05-01T16:08:09.342Z,968
2019-05-01T16:08:41.350Z,968
2019-05-01T16:09:23.523Z,964
2019-05-01T16:10:03.943Z,956
2019-05-01T16:10:44.346Z,964
2019-05-01T16:11:24.953Z,952
2019-05-01T16:17:01.948Z,932
2019-05-01T16:17:43.739Z,932
2019-05-01T16:18:24.150Z,932
2019-05-01T16:19:04.711Z,928
2019-05-01T16:19:45.037Z,928
2019-05-01T16:21:10.765Z,924
2019-05-01T16:21:51.177Z,920
2019-05-01T16:22:31.774Z,920
2019-05-01T16:23:13.045Z,916
2019-05-01T16:23:56.124Z,912
2019-05-01T16:28:41.296Z,892
2019-05-01T16:29:21.377Z,888
2019-05-01T16:30:01.789Z,884
2019-05-01T16:30:42.207Z,884
2019-05-01T16:31:22.605Z,876
2019-05-01T16:32:05.265Z,872
2019-05-01T16:32:45.314Z,872
2019-05-01T17:11:25.772Z,668
2019-05-01T17:12:10.881Z,664
2019-05-01T17:12:49.989Z,660
2019-05-01T17:13:30.689Z,652
2019-05-01T17:14:11.444Z,648
2019-05-01T17:14:51.926Z,640
2019-05-01T17:15:32.293Z,632
2019-05-01T17:16:12.693Z,628
2019-05-01T17:16:53.074Z,620
2019-05-01T17:17:33.511Z,616
2019-05-01T17:18:54.613Z,604
2019-05-01T17:19:34.935Z,600
2019-05-01T17:20:15.329Z,596
2019-05-01T17:27:40.691Z,536
2019-05-01T17:28:21.065Z,528
2019-05-01T17:29:01.461Z,524
2019-05-01T17:29:41.944Z,520
2019-05-01T17:30:22.415Z,512
2019-05-01T17:31:02.855Z,504
2019-05-01T17:31:43.169Z,496
2019-05-01T17:32:23.574Z,492
2019-05-01T17:33:03.933Z,488
2019-05-01T17:33:44.410Z,480
2019-05-01T17:34:25.542Z,476
2019-05-01T17:35:06.554Z,468
2019-05-01T17:35:45.758Z,464
2019-05-01T17:43:50.644Z,380
2019-05-01T17:44:30.867Z,372
2019-05-01T17:45:11.257Z,368
2019-05-01T17:45:51.694Z,360
2019-05-01T17:46:32.046Z,352
2019-05-01T17:47:12.534Z,348
2019-05-01T17:47:57.752Z,340
2019-05-01T17:48:33.787Z,340
2019-05-01T17:49:13.637Z,336
2019-05-01T17:49:54.025Z,328
2019-05-01T17:50:34.429Z,328
2019-05-01T17:51:14.832Z,320
2019-05-01T17:51:55.182Z,316
2019-05-01T17:52:35.583Z,312
2019-05-01T18:00:52.577Z,248
2019-05-01T18:01:34.335Z,248
2019-05-01T18:02:14.008Z,248
2019-05-01T18:02:54.539Z,244
2019-05-01T18:10:59.673Z,192
2019-05-01T18:11:40.114Z,188
2019-05-01T18:14:05.731Z,172
2019-05-01T18:14:47.669Z,168
2019-05-01T18:15:28.105Z,160
2019-05-01T18:16:08.497Z,160
2019-05-01T18:22:12.054Z,136
2019-05-01T18:22:52.440Z,132
2019-05-01T18:23:32.871Z,132
2019-05-01T18:24:13.307Z,128
2019-05-01T18:24:54.012Z,124
2019-05-01T18:25:34.907Z,120
2019-05-01T18:26:14.505Z,120
2019-05-01T18:26:54.829Z,116
2019-05-01T18:27:35.212Z,116
2019-05-01T18:28:15.630Z,112
2019-05-01T18:28:56.014Z,112
2019-05-01T18:29:39.722Z,108
2019-05-01T18:30:20.450Z,104
2019-05-01T18:37:01.967Z,80
2019-05-01T18:37:42.409Z,76
2019-05-01T18:38:22.864Z,72
2019-05-01T18:39:15.178Z,68
2019-05-01T18:39:43.547Z,68
2019-05-01T18:40:24.055Z,64
2019-05-01T18:41:04.357Z,60
2019-05-01T18:41:45.001Z,56
2019-05-01T18:42:25.287Z,56
2019-05-01T18:43:05.670Z,56
2019-05-01T18:43:46.015Z,52
2019-05-01T18:52:40.550Z,28
2019-05-01T18:53:21.753Z,24
2019-05-01T18:54:02.029Z,24
2019-05-01T18:54:42.470Z,24
2019-05-01T19:00:46.421Z,12